Time;durP1;ratioP1;P1;durP2;ratioP2;P2;SDS_P1;SDS_P2;PMS_P1;PMS_P2;Temp;Humidity;BMP_temperature;BMP_pressure;BME280_temperature;BME280_humidity;BME280_pressure;Samples;Min_cycle;Max_cycle;Signal;HPM_P1;HPM_P2
2021/11/22 00:01:39;;;;;;;22.52;11.05;;;;;;;28.11;18.44;97694.81;5031396;28;20053;-81
2021/11/22 00:04:05;;;;;;;18.23;9.60;;;;;;;27.90;18.65;97702.16;5030947;28;20038;-81
2021/11/22 00:06:32;;;;;;;19.23;9.68;;;;;;;27.87;18.76;97701.06;5025808;28;20033;-81
2021/11/22 00:08:58;;;;;;;15.80;10.23;;;;;;;27.96;18.66;97703.09;5028221;28;20037;-81
2021/11/22 00:11:24;;;;;;;18.90;10.00;;;;;;;27.73;18.81;97700.88;5025416;28;20104;-81
2021/11/22 00:13:50;;;;;;;17.45;9.60;;;;;;;27.43;19.39;97699.72;5030673;28;20037;-81
2021/11/22 00:16:16;;;;;;;16.33;9.13;;;;;;;27.51;19.17;97705.88;5031651;28;20500;-81
2021/11/22 00:18:44;;;;;;;16.38;9.88;;;;;;;27.65;18.75;97706.06;5030604;28;20034;-81
2021/11/22 00:21:10;;;;;;;15.18;8.98;;;;;;;27.69;18.90;97711.53;5028193;28;20462;-81
2021/11/22 00:23:37;;;;;;;19.45;10.07;;;;;;;27.44;19.08;97712.59;5029790;28;20057;-81
2021/11/22 00:26:03;;;;;;;16.33;9.80;;;;;;;27.46;18.97;97712.91;5028572;28;20051;-81
2021/11/22 00:28:29;;;;;;;18.75;9.27;;;;;;;27.57;18.97;97718.88;5025851;28;20489;-81
2021/11/22 00:30:55;;;;;;;19.25;9.88;;;;;;;27.59;18.99;97710.72;5029099;28;20538;-81
2021/11/22 00:33:21;;;;;;;17.42;8.57;;;;;;;27.62;19.07;97717.47;5029662;28;20045;-81
2021/11/22 00:35:49;;;;;;;14.80;7.97;;;;;;;27.75;19.17;97718.16;5024505;28;20091;-81
2021/11/22 00:38:16;;;;;;;17.90;9.45;;;;;;;27.94;18.83;97722.53;5023172;28;20482;-81
2021/11/22 00:40:43;;;;;;;15.13;8.25;;;;;;;28.18;18.48;97731.22;5029411;28;20375;-82
2021/11/22 00:43:10;;;;;;;18.23;9.40;;;;;;;27.90;18.64;97738.84;5027892;28;20084;-82
2021/11/22 00:45:36;;;;;;;18.23;9.68;;;;;;;27.52;18.99;97735.63;5030247;28;20074;-82
2021/11/22 00:48:03;;;;;;;18.80;10.63;;;;;;;27.42;19.11;97739.69;5025972;28;20046;-82
2021/11/22 00:50:31;;;;;;;18.67;9.70;;;;;;;27.24;19.10;97738.34;5030215;28;20044;-82
2021/11/22 00:52:57;;;;;;;15.23;9.50;;;;;;;27.14;19.32;97744.41;5030625;28;20030;-81
2021/11/22 00:55:23;;;;;;;17.35;9.93;;;;;;;27.26;19.44;97743.50;5025629;28;20036;-82
2021/11/22 00:57:49;;;;;;;16.08;9.45;;;;;;;27.29;19.19;97745.41;5024536;28;20066;-81
2021/11/22 01:00:18;;;;;;;18.55;9.98;;;;;;;25.20;21.48;97743.63;5024660;28;20038;-81
2021/11/22 01:02:44;;;;;;;21.50;11.13;;;;;;;24.13;23.03;97752.00;5025257;28;20117;-82
2021/11/22 01:05:11;;;;;;;14.20;8.43;;;;;;;24.64;22.38;97756.56;5026500;28;20047;-82
2021/11/22 01:07:37;;;;;;;18.52;9.82;;;;;;;25.13;21.95;97752.28;5029326;28;20068;-82
2021/11/22 01:10:06;;;;;;;20.73;10.45;;;;;;;25.66;21.23;97761.81;5029276;28;20092;-82
2021/11/22 01:12:33;;;;;;;20.45;10.63;;;;;;;26.01;20.92;97757.81;5028405;28;20034;-81
2021/11/22 01:15:01;;;;;;;18.80;10.73;;;;;;;25.75;21.03;97755.50;5029271;28;20029;-81
2021/11/22 01:17:27;;;;;;;21.75;12.30;;;;;;;26.09;20.89;97752.72;5024422;28;20033;-81
2021/11/22 01:19:54;;;;;;;22.38;11.13;;;;;;;26.40;20.26;97744.38;5029907;28;20103;-82
2021/11/22 01:22:22;;;;;;;22.65;12.98;;;;;;;26.42;20.26;97748.31;5028868;28;20091;-81
2021/11/22 01:24:48;;;;;;;23.92;13.23;;;;;;;26.73;20.13;97751.19;5033682;28;20026;-82
2021/11/22 01:27:15;;;;;;;25.73;14.70;;;;;;;26.70;19.84;97758.53;5027818;28;20037;-82
2021/11/22 01:29:41;;;;;;;26.33;14.50;;;;;;;26.66;19.86;97759.91;5034488;28;20496;-82
2021/11/22 01:32:08;;;;;;;26.45;13.25;;;;;;;26.48;20.35;97765.41;5031068;28;20042;-81
2021/11/22 01:34:34;;;;;;;26.55;14.82;;;;;;;26.44;20.21;97762.72;5034833;28;20032;-82
2021/11/22 01:37:01;;;;;;;21.15;11.98;;;;;;;26.92;19.80;97763.38;5035632;28;20060;-82
2021/11/22 01:39:27;;;;;;;24.08;12.70;;;;;;;27.48;19.11;97761.16;5031874;28;20037;-81
2021/11/22 01:41:53;;;;;;;28.02;14.07;;;;;;;27.83;18.63;97762.50;5035404;28;20492;-82
2021/11/22 01:44:19;;;;;;;29.17;15.88;;;;;;;28.07;18.60;97762.75;5032911;28;20393;-82
2021/11/22 01:46:48;;;;;;;25.80;13.60;;;;;;;27.97;18.59;97755.47;5033022;28;20444;-82
2021/11/22 01:49:16;;;;;;;28.35;14.35;;;;;;;27.60;19.07;97751.81;5031696;28;20060;-81
2021/11/22 01:51:42;;;;;;;26.73;14.63;;;;;;;27.56;19.05;97756.81;5026631;28;20048;-81
2021/11/22 01:54:08;;;;;;;20.73;12.32;;;;;;;27.88;18.78;97769.56;5029465;28;20092;-82
2021/11/22 01:56:34;;;;;;;27.83;13.95;;;;;;;27.94;18.67;97759.22;5032291;28;20108;-81
2021/11/22 01:59:01;;;;;;;26.70;13.32;;;;;;;27.91;18.56;97760.94;5035026;28;20040;-81
2021/11/22 02:01:27;;;;;;;22.90;12.52;;;;;;;28.10;18.65;97769.50;5032940;28;20486;-82
2021/11/22 02:03:53;;;;;;;28.95;14.82;;;;;;;28.13;18.58;97765.72;5031003;28;20134;-82
2021/11/22 02:06:19;;;;;;;25.67;13.85;;;;;;;28.11;18.23;97763.38;5026766;28;20548;-82
2021/11/22 02:08:46;;;;;;;26.92;15.05;;;;;;;27.86;18.70;97766.44;5032225;28;20037;-82
2021/11/22 02:11:13;;;;;;;21.88;12.77;;;;;;;27.67;18.87;97759.19;5032277;28;20187;-81
2021/11/22 02:13:41;;;;;;;28.02;15.00;;;;;;;27.63;18.67;97767.81;5032353;28;20041;-82
2021/11/22 02:16:07;;;;;;;25.58;13.57;;;;;;;27.64;18.91;97774.22;5027252;28;20505;-82
2021/11/22 02:18:33;;;;;;;25.23;13.48;;;;;;;27.59;18.86;97778.44;5030445;28;20591;-82
2021/11/22 02:21:00;;;;;;;30.95;15.27;;;;;;;27.32;19.21;97767.81;5030786;28;20508;-82
2021/11/22 02:23:26;;;;;;;25.83;13.13;;;;;;;27.46;19.23;97769.31;5025663;28;20156;-81
2021/11/22 02:25:52;;;;;;;23.92;12.82;;;;;;;27.83;18.72;97770.97;5029738;28;20037;-81
2021/11/22 02:28:19;;;;;;;21.08;11.88;;;;;;;28.06;18.45;97767.59;5031624;28;20519;-82
2021/11/22 02:30:47;;;;;;;23.95;13.68;;;;;;;28.22;18.50;97777.00;5032029;28;20033;-82
2021/11/22 02:33:18;;;;;;;23.23;12.35;;;;;;;28.27;18.14;97771.53;5029776;28;20089;-82
2021/11/22 02:35:52;;;;;;;23.92;12.60;;;;;;;28.21;18.07;97776.25;5023249;28;20041;-82
2021/11/22 02:38:20;;;;;;;23.95;13.75;;;;;;;27.98;18.27;97774.75;5024555;28;20039;-81
2021/11/22 02:40:47;;;;;;;30.25;15.10;;;;;;;27.20;19.23;97770.72;5029021;28;20037;-81
2021/11/22 02:43:13;;;;;;;29.23;15.23;;;;;;;26.98;19.30;97781.28;5033569;28;20041;-81
2021/11/22 02:45:39;;;;;;;29.20;14.75;;;;;;;27.14;19.10;97786.69;5031402;28;20171;-81
2021/11/22 02:48:06;;;;;;;32.08;17.13;;;;;;;27.06;19.06;97776.91;5026891;28;20042;-81
2021/11/22 02:50:32;;;;;;;21.10;12.57;;;;;;;26.95;19.35;97777.34;5029974;28;20041;-81
2021/11/22 02:52:59;;;;;;;22.83;12.38;;;;;;;27.10;18.95;97775.53;5028804;28;20034;-81
2021/11/22 02:55:25;;;;;;;23.38;13.45;;;;;;;27.21;18.83;97780.75;5028054;28;20036;-81
2021/11/22 02:57:52;;;;;;;25.83;13.57;;;;;;;26.88;19.08;97783.25;5029765;28;20041;-81
2021/11/22 03:00:25;;;;;;;27.20;14.43;;;;;;;26.80;19.28;97781.94;5029647;28;20041;-81
2021/11/22 03:02:53;;;;;;;22.85;12.45;;;;;;;26.94;19.08;97794.69;5029552;28;20041;-81
2021/11/22 03:05:20;;;;;;;28.85;15.27;;;;;;;26.68;19.43;97796.84;5028978;28;20037;-81
2021/11/22 03:07:49;;;;;;;23.00;13.15;;;;;;;26.46;19.42;97793.25;5029434;28;20029;-81
2021/11/22 03:10:17;;;;;;;23.90;11.88;;;;;;;26.47;19.50;97797.63;5024872;28;20065;-81
2021/11/22 03:12:44;;;;;;;23.65;13.57;;;;;;;26.53;19.51;97795.81;5043358;28;20038;-81
2021/11/22 03:15:13;;;;;;;23.85;12.88;;;;;;;26.47;19.33;97791.97;5032077;28;20041;-81
2021/11/22 03:17:40;;;;;;;24.20;12.65;;;;;;;26.39;19.45;97797.09;5031821;28;20179;-81
2021/11/22 03:20:09;;;;;;;23.10;12.20;;;;;;;26.52;19.26;97799.84;5031283;28;20061;-81
2021/11/22 03:22:35;;;;;;;27.83;13.63;;;;;;;26.56;19.33;97803.31;5019034;28;20030;-81
2021/11/22 03:25:02;;;;;;;24.10;12.38;;;;;;;26.60;19.16;97810.41;5031113;28;20473;-81
2021/11/22 03:27:29;;;;;;;27.58;13.70;;;;;;;26.84;19.18;97812.81;5031342;28;20045;-82
2021/11/22 03:29:55;;;;;;;23.10;12.80;;;;;;;27.00;18.81;97813.34;5029636;28;20029;-81
2021/11/22 03:32:21;;;;;;;29.77;14.30;;;;;;;27.15;18.90;97816.41;5030939;28;20065;-81
2021/11/22 03:34:48;;;;;;;28.15;14.02;;;;;;;27.34;18.53;97809.63;5032091;28;20076;-81
2021/11/22 03:37:15;;;;;;;23.30;11.73;;;;;;;27.44;18.68;97825.38;5029331;28;20029;-81
2021/11/22 03:39:46;;;;;;;22.67;11.32;;;;;;;27.61;18.43;97832.34;5025535;28;20037;-81
2021/11/22 03:42:16;;;;;;;24.23;12.90;;;;;;;27.73;18.19;97831.44;5031613;28;20037;-81
2021/11/22 03:44:44;;;;;;;27.60;14.43;;;;;;;27.73;18.15;97837.09;5030501;28;20034;-81
2021/11/22 03:47:11;;;;;;;24.48;13.10;;;;;;;27.65;18.43;97835.03;5029225;28;20042;-81
2021/11/22 03:49:37;;;;;;;27.90;14.45;;;;;;;27.45;18.52;97832.59;5026816;28;20030;-82
2021/11/22 03:52:04;;;;;;;22.52;13.02;;;;;;;27.47;18.48;97834.97;5025470;28;20038;-81
2021/11/22 03:54:31;;;;;;;19.00;11.23;;;;;;;27.65;18.57;97843.50;5033549;28;20021;-82
2021/11/22 03:56:57;;;;;;;23.02;13.20;;;;;;;27.76;18.27;97846.66;5022822;28;20042;-82
2021/11/22 03:59:23;;;;;;;28.27;14.95;;;;;;;27.82;18.23;97851.22;5028103;28;20083;-82
2021/11/22 04:01:50;;;;;;;21.83;11.75;;;;;;;27.38;18.88;97838.50;5031183;28;20433;-82
2021/11/22 04:04:16;;;;;;;23.85;12.95;;;;;;;27.10;19.02;97846.00;5029953;28;20413;-82
2021/11/22 04:06:42;;;;;;;29.10;14.30;;;;;;;26.98;19.24;97849.66;5026947;28;20083;-82
2021/11/22 04:09:09;;;;;;;21.52;12.13;;;;;;;26.83;19.40;97851.44;5025915;28;20034;-82
2021/11/22 04:11:35;;;;;;;28.30;14.13;;;;;;;26.94;19.21;97846.19;5029261;28;20040;-82
2021/11/22 04:14:06;;;;;;;26.27;14.27;;;;;;;27.09;19.24;97852.91;5030874;28;20071;-82
2021/11/22 04:16:33;;;;;;;28.40;15.18;;;;;;;27.17;18.86;97850.56;5026733;28;20033;-82
2021/11/22 04:18:59;;;;;;;23.15;13.10;;;;;;;26.88;19.11;97848.06;5031273;28;20119;-81
2021/11/22 04:21:25;;;;;;;22.70;12.40;;;;;;;26.82;19.43;97854.72;5025235;28;20494;-81
2021/11/22 04:23:57;;;;;;;24.05;13.77;;;;;;;26.49;19.92;97855.03;5024754;28;20041;-81
2021/11/22 04:26:24;;;;;;;27.45;15.18;;;;;;;26.50;19.78;97861.47;5028278;28;20417;-82
2021/11/22 04:28:50;;;;;;;27.42;14.98;;;;;;;26.43;19.81;97867.34;5027242;28;20037;-81
2021/11/22 04:31:16;;;;;;;31.15;16.38;;;;;;;26.23;19.98;97859.19;5029657;28;20036;-81
2021/11/22 04:33:42;;;;;;;28.05;14.77;;;;;;;25.89;20.46;97861.91;5031545;28;20030;-81
2021/11/22 04:36:10;;;;;;;28.98;15.50;;;;;;;25.69;20.83;97862.16;5026625;28;20021;-81
2021/11/22 04:38:37;;;;;;;28.52;15.45;;;;;;;25.92;20.57;97873.06;5029026;28;20030;-81
2021/11/22 04:41:04;;;;;;;31.40;16.63;;;;;;;26.13;20.45;97876.44;5029288;28;20492;-81
2021/11/22 04:43:30;;;;;;;27.88;14.73;;;;;;;26.30;20.26;97873.00;5030195;28;20121;-81
2021/11/22 04:45:56;;;;;;;27.75;15.80;;;;;;;26.56;19.84;97863.25;5031847;28;20032;-81
2021/11/22 04:48:23;;;;;;;23.17;12.70;;;;;;;26.89;19.61;97858.06;5030091;28;20120;-81
2021/11/22 04:50:49;;;;;;;28.95;14.57;;;;;;;27.22;19.07;97864.88;5032946;28;20072;-81
2021/11/22 04:53:15;;;;;;;26.67;14.32;;;;;;;27.46;18.94;97864.41;5034683;28;20041;-81
2021/11/22 04:55:41;;;;;;;25.85;12.68;;;;;;;26.81;19.48;97876.47;5034870;28;20216;-82
2021/11/22 04:58:08;;;;;;;25.00;13.00;;;;;;;26.75;19.40;97872.66;5034513;28;20037;-81
2021/11/22 05:00:35;;;;;;;21.33;12.43;;;;;;;27.03;19.04;97870.81;5032269;28;20786;-82
2021/11/22 05:03:03;;;;;;;24.23;12.52;;;;;;;27.21;18.82;97868.91;5032536;28;20076;-81
2021/11/22 05:05:29;;;;;;;23.45;12.77;;;;;;;26.83;19.07;97878.84;5030985;28;20029;-81
2021/11/22 05:07:55;;;;;;;27.65;13.43;;;;;;;26.46;19.89;97875.69;5034061;28;20112;-81
2021/11/22 05:10:23;;;;;;;24.70;12.77;;;;;;;26.51;19.47;97880.72;5033746;28;20459;-81
2021/11/22 05:12:49;;;;;;;25.83;13.35;;;;;;;26.87;19.33;97885.13;5033364;28;20155;-82
2021/11/22 05:15:16;;;;;;;23.10;11.80;;;;;;;27.23;18.81;97896.66;5027021;28;20033;-81
2021/11/22 05:17:42;;;;;;;30.90;15.63;;;;;;;27.34;18.80;97895.00;5031013;28;20025;-81
2021/11/22 05:20:09;;;;;;;30.10;15.82;;;;;;;27.30;19.13;97905.66;5030183;28;20046;-81
2021/11/22 05:22:35;;;;;;;24.85;14.90;;;;;;;27.44;18.91;97897.91;5024285;28;20045;-81
2021/11/22 05:25:03;;;;;;;22.10;12.95;;;;;;;27.64;18.68;97907.56;5028905;28;20385;-82
2021/11/22 05:27:30;;;;;;;23.85;12.43;;;;;;;27.80;18.70;97909.38;5025642;28;20117;-82
2021/11/22 05:29:57;;;;;;;21.40;12.45;;;;;;;27.42;18.83;97912.47;5029835;28;20037;-81
2021/11/22 05:32:24;;;;;;;24.35;12.18;;;;;;;27.37;18.86;97911.06;5028822;28;20607;-81
2021/11/22 05:34:53;;;;;;;22.70;12.27;;;;;;;27.55;18.58;97915.22;5031362;28;20087;-81
2021/11/22 05:37:20;;;;;;;22.80;13.00;;;;;;;27.55;18.98;97920.84;5026109;28;20025;-81
2021/11/22 05:39:46;;;;;;;24.45;13.15;;;;;;;27.53;18.98;97912.06;5022135;28;20045;-82
2021/11/22 05:42:14;;;;;;;23.58;13.35;;;;;;;27.30;19.16;97916.13;5023684;28;20498;-81
2021/11/22 05:44:40;;;;;;;23.33;13.52;;;;;;;27.18;19.46;97916.97;5020959;28;20045;-82
2021/11/22 05:47:09;;;;;;;23.65;11.75;;;;;;;27.31;19.00;97907.19;5027607;28;20045;-82
2021/11/22 05:49:36;;;;;;;22.25;12.40;;;;;;;26.91;19.65;97909.09;5027724;28;20433;-82
2021/11/22 05:52:05;;;;;;;25.25;13.02;;;;;;;26.66;19.59;97904.34;5026606;28;20038;-82
2021/11/22 05:54:32;;;;;;;23.42;12.10;;;;;;;26.82;19.76;97911.06;5027229;28;20029;-82
2021/11/22 05:57:00;;;;;;;20.52;11.90;;;;;;;27.27;19.33;97911.41;5028584;28;20371;-82
2021/11/22 05:59:27;;;;;;;25.52;13.18;;;;;;;27.00;19.42;97916.84;5029849;28;20037;-82
2021/11/22 06:01:53;;;;;;;25.45;13.93;;;;;;;26.37;20.30;97914.22;5025860;28;20033;-82
2021/11/22 06:04:19;;;;;;;25.83;13.45;;;;;;;26.42;20.04;97913.66;5029881;28;20025;-82
2021/11/22 06:06:46;;;;;;;22.33;11.73;;;;;;;26.60;19.78;97922.28;5029952;28;20036;-83
2021/11/22 06:09:12;;;;;;;28.05;14.50;;;;;;;26.98;19.39;97925.00;5032032;28;20037;-82
2021/11/22 06:11:38;;;;;;;26.02;14.02;;;;;;;26.94;19.47;97933.56;5027825;28;20029;-82
2021/11/22 06:14:04;;;;;;;27.88;15.60;;;;;;;26.92;19.54;97946.53;5028973;28;20482;-84
2021/11/22 06:16:32;;;;;;;26.63;15.15;;;;;;;26.90;19.65;97944.16;5028135;28;20442;-84
2021/11/22 06:18:58;;;;;;;23.85;15.80;;;;;;;26.91;19.66;97954.19;5031217;28;20064;-84
2021/11/22 06:21:24;;;;;;;29.02;16.33;;;;;;;26.99;19.91;97957.53;5024821;28;20073;-83
2021/11/22 06:23:51;;;;;;;24.00;14.18;;;;;;;27.35;19.26;97963.47;5025277;28;20056;-84
2021/11/22 06:26:17;;;;;;;23.80;13.50;;;;;;;27.72;19.02;97959.66;5025835;28;20064;-83
2021/11/22 06:28:44;;;;;;;23.75;14.27;;;;;;;27.99;18.61;97968.28;5033068;28;20477;-83
2021/11/22 06:31:10;;;;;;;31.40;15.75;;;;;;;27.84;18.88;97972.88;5032481;28;20453;-83
2021/11/22 06:33:36;;;;;;;23.67;13.15;;;;;;;27.63;19.14;97968.09;5034886;28;20481;-83
2021/11/22 06:36:03;;;;;;;23.15;13.02;;;;;;;27.42;19.30;97976.56;5033878;28;20030;-83
2021/11/22 06:38:32;;;;;;;22.30;13.38;;;;;;;27.03;19.71;97980.72;5034705;28;20037;-83
2021/11/22 06:40:59;;;;;;;22.38;13.00;;;;;;;26.66;20.31;97985.22;5028386;28;20497;-83
2021/11/22 06:43:26;;;;;;;21.35;12.40;;;;;;;26.56;20.46;97991.97;5029467;28;20072;-83
2021/11/22 06:45:52;;;;;;;23.25;14.20;;;;;;;26.06;20.64;97998.41;5033760;28;20029;-83
2021/11/22 06:48:18;;;;;;;24.75;12.70;;;;;;;25.84;20.99;98003.91;5016700;28;20038;-83
2021/11/22 06:50:44;;;;;;;29.92;15.75;;;;;;;25.98;21.11;98002.69;5026529;28;20029;-83
2021/11/22 06:53:11;;;;;;;27.15;15.13;;;;;;;25.94;20.85;97999.19;5017247;28;20038;-83
2021/11/22 06:55:37;;;;;;;28.50;17.27;;;;;;;26.20;20.77;97998.00;5020822;28;20029;-83
2021/11/22 06:58:04;;;;;;;29.52;16.48;;;;;;;26.31;20.58;97998.44;5032510;28;20041;-83
2021/11/22 07:00:30;;;;;;;31.88;18.80;;;;;;;26.55;20.42;97996.06;5033646;28;20037;-83
2021/11/22 07:02:57;;;;;;;31.33;18.77;;;;;;;26.70;20.29;97997.94;5026405;28;20032;-83
2021/11/22 07:05:25;;;;;;;38.05;18.80;;;;;;;26.53;20.20;97998.53;5026229;28;20030;-83
2021/11/22 07:07:51;;;;;;;33.92;20.02;;;;;;;26.60;20.61;98009.56;5032395;28;20069;-83
2021/11/22 07:10:21;;;;;;;33.63;18.83;;;;;;;26.35;20.52;98006.78;5023205;28;20063;-83
2021/11/22 07:12:48;;;;;;;34.45;20.27;;;;;;;26.03;21.16;98008.53;5017313;28;20075;-83
2021/11/22 07:15:35;;;;;;;32.67;18.83;;;;;;;25.69;21.52;98010.41;5015032;28;20995;-83
2021/11/22 07:18:02;;;;;;;35.53;19.95;;;;;;;25.79;21.57;98018.53;5010646;28;20037;-83
2021/11/22 07:20:29;;;;;;;30.58;17.45;;;;;;;25.53;21.88;98021.72;5010566;28;20654;-81
2021/11/22 07:22:55;;;;;;;31.80;18.60;;;;;;;26.11;21.25;98019.63;5009657;28;20052;-81
2021/11/22 07:25:21;;;;;;;37.05;19.92;;;;;;;26.37;21.12;98015.56;5015180;28;20053;-81
2021/11/22 07:27:47;;;;;;;30.08;18.42;;;;;;;26.24;20.98;98018.38;5017940;28;20041;-81
2021/11/22 07:30:21;;;;;;;30.70;16.83;;;;;;;25.96;21.15;98024.84;5010261;28;21095;-81
2021/11/22 07:32:53;;;;;;;27.35;15.90;;;;;;;25.86;21.49;98025.94;5011950;28;20179;-82
2021/11/22 07:35:23;;;;;;;28.52;16.45;;;;;;;25.30;22.15;98048.81;5010246;28;20033;-81
2021/11/22 07:37:50;;;;;;;35.43;19.40;;;;;;;25.25;22.04;98043.72;5010410;28;20037;-81
2021/11/22 07:40:21;;;;;;;34.55;19.15;;;;;;;25.28;22.22;98048.47;5015101;28;20291;-81
2021/11/22 07:42:48;;;;;;;;;;;;;;;25.61;21.98;98042.78;5011306;28;20875;-81
2021/11/22 07:45:15;;;;;;;35.25;18.85;;;;;;;25.69;21.79;98044.94;5008735;28;19956;-81
2021/11/22 07:47:41;;;;;;;33.15;18.88;;;;;;;25.94;21.60;98041.41;5014639;28;20041;-81
2021/11/22 07:50:08;;;;;;;30.40;17.25;;;;;;;25.66;21.83;98056.28;5024355;28;20037;-82
2021/11/22 07:52:34;;;;;;;30.27;17.35;;;;;;;25.50;22.01;98056.34;5018462;28;20125;-81
2021/11/22 07:55:00;;;;;;;29.58;17.35;;;;;;;25.82;21.71;98056.22;5031839;28;20029;-82
2021/11/22 07:57:28;;;;;;;36.65;19.13;;;;;;;26.31;21.17;98048.31;5023518;28;20018;-81
2021/11/22 07:59:54;;;;;;;31.77;17.92;;;;;;;26.15;21.41;98057.66;5032799;28;20037;-81
2021/11/22 08:02:21;;;;;;;30.17;16.70;;;;;;;26.17;21.32;98063.63;5025620;28;20026;-81
2021/11/22 08:04:47;;;;;;;28.48;16.80;;;;;;;26.17;21.48;98065.66;5029319;28;20390;-81
2021/11/22 08:07:16;;;;;;;28.88;17.20;;;;;;;26.12;21.60;98064.19;5030753;28;20485;-81
2021/11/22 08:09:57;;;;;;;27.73;16.98;;;;;;;26.67;20.78;98068.47;5030685;28;20037;-82
2021/11/22 08:12:26;;;;;;;30.77;17.80;;;;;;;27.00;20.56;98063.41;5023783;28;20108;-81
2021/11/22 08:15:00;;;;;;;29.35;16.15;;;;;;;26.83;20.74;98073.22;5028988;28;20045;-84
2021/11/22 08:17:29;;;;;;;27.35;15.73;;;;;;;26.99;20.74;98070.25;5032575;28;20040;-84
2021/11/22 08:19:57;;;;;;;22.40;14.48;;;;;;;26.56;21.15;98077.25;5024393;28;20022;-84
2021/11/22 08:22:24;;;;;;;24.80;14.10;;;;;;;26.18;21.46;98078.50;5013215;28;20036;-84
2021/11/22 08:24:52;;;;;;;33.53;19.13;;;;;;;26.32;21.41;98084.47;5031110;28;20059;-84
2021/11/22 08:27:24;;;;;;;32.88;17.67;;;;;;;25.87;21.76;98095.84;5031811;28;20137;-84
2021/11/22 08:29:51;;;;;;;28.88;17.63;;;;;;;24.84;23.20;98102.63;5020169;28;20032;-84
2021/11/22 08:32:18;;;;;;;35.70;20.23;;;;;;;25.65;22.67;98106.09;5032323;28;20513;-84
2021/11/22 08:34:44;;;;;;;31.33;18.42;;;;;;;25.29;22.85;98092.22;5032743;28;20456;-84
2021/11/22 08:37:11;;;;;;;38.67;21.50;;;;;;;24.94;23.32;98104.38;5028458;28;20096;-84
2021/11/22 08:39:38;;;;;;;32.53;17.42;;;;;;;24.98;23.41;98107.88;5015479;28;20030;-84
2021/11/22 08:42:05;;;;;;;27.08;16.08;;;;;;;24.27;24.31;98110.75;5022500;28;20029;-84
2021/11/22 08:44:32;;;;;;;36.67;19.77;;;;;;;24.99;23.51;98109.47;5029955;28;20041;-84
2021/11/22 08:47:00;;;;;;;31.60;18.63;;;;;;;25.18;23.18;98113.41;5031448;28;20042;-84
2021/11/22 08:49:27;;;;;;;28.08;16.52;;;;;;;25.05;23.29;98116.13;5025355;28;20068;-84
2021/11/22 08:51:53;;;;;;;38.10;21.35;;;;;;;25.15;23.44;98120.69;5025210;28;20053;-84
2021/11/22 08:54:20;;;;;;;32.38;19.17;;;;;;;25.31;22.97;98117.06;5021372;28;20033;-84
2021/11/22 08:56:47;;;;;;;29.05;18.42;;;;;;;24.84;23.76;98115.84;5029414;28;20099;-84
2021/11/22 08:59:14;;;;;;;35.05;19.33;;;;;;;25.07;23.50;98119.28;5029992;28;20033;-84
2021/11/22 09:01:40;;;;;;;39.58;20.75;;;;;;;24.88;23.57;98113.78;5030770;28;20505;-82
2021/11/22 09:04:07;;;;;;;36.50;19.75;;;;;;;25.03;23.67;98124.22;5032377;28;20038;-82
2021/11/22 09:06:34;;;;;;;34.85;19.35;;;;;;;24.57;23.85;98125.31;5030863;28;20116;-82
2021/11/22 09:09:03;;;;;;;36.80;20.25;;;;;;;25.03;23.42;98124.22;5030291;28;20033;-82
2021/11/22 09:11:29;;;;;;;39.75;22.42;;;;;;;24.48;24.19;98118.69;5025068;28;20095;-82
2021/11/22 09:13:55;;;;;;;31.65;16.27;;;;;;;24.39;24.42;98116.47;5019188;28;20509;-82
2021/11/22 09:16:27;;;;;;;35.15;19.02;;;;;;;25.55;23.08;98126.09;5032673;28;20034;-82
2021/11/22 09:19:00;;;;;;;33.50;18.00;;;;;;;25.70;22.86;98121.66;5031241;28;20036;-82
2021/11/22 09:21:27;;;;;;;36.10;18.88;;;;;;;25.88;22.66;98119.16;5030089;28;20049;-82
2021/11/22 09:23:54;;;;;;;34.35;18.23;;;;;;;25.80;22.66;98124.19;5023735;28;20048;-82
2021/11/22 09:26:21;;;;;;;31.27;17.20;;;;;;;26.01;22.44;98122.78;5021602;28;20036;-82
2021/11/22 09:28:48;;;;;;;33.42;17.90;;;;;;;25.12;23.76;98140.44;5032295;28;20036;-82
2021/11/22 09:31:15;;;;;;;32.60;17.42;;;;;;;25.54;23.20;98127.31;5029657;28;20113;-82
2021/11/22 09:33:44;;;;;;;35.28;18.45;;;;;;;25.63;23.50;98133.09;5030991;28;20029;-82
2021/11/22 09:36:11;;;;;;;32.00;16.80;;;;;;;25.47;23.27;98127.50;5030511;28;20045;-82
2021/11/22 09:38:38;;;;;;;42.40;20.48;;;;;;;25.69;23.17;98126.50;5036209;28;20091;-82
2021/11/22 09:41:04;;;;;;;32.47;16.58;;;;;;;25.67;23.13;98125.38;5029571;28;20040;-82
2021/11/22 09:43:30;;;;;;;34.28;18.08;;;;;;;26.19;22.83;98125.09;5028030;28;20083;-82
2021/11/22 09:45:57;;;;;;;41.42;21.08;;;;;;;25.56;23.33;98130.47;5032076;28;20048;-82
2021/11/22 09:48:23;;;;;;;38.40;19.95;;;;;;;25.64;23.64;98129.06;5033676;28;20489;-82
2021/11/22 09:50:50;;;;;;;42.30;22.10;;;;;;;25.34;23.86;98130.25;5033206;28;20408;-82
2021/11/22 09:53:16;;;;;;;40.38;21.23;;;;;;;25.73;23.25;98132.81;5033516;28;20037;-82
2021/11/22 09:55:43;;;;;;;32.13;16.35;;;;;;;25.19;24.41;98134.63;5035065;28;20081;-82
2021/11/22 09:58:11;;;;;;;36.05;19.80;;;;;;;25.38;23.89;98136.56;5035761;28;20107;-82
2021/11/22 10:00:40;;;;;;;35.05;17.50;;;;;;;25.22;24.21;98133.75;5034751;28;20100;-82
2021/11/22 10:03:12;;;;;;;38.60;19.25;;;;;;;25.13;24.19;98134.41;5035379;28;20033;-82
2021/11/22 10:05:40;;;;;;;33.58;17.20;;;;;;;25.29;23.90;98131.56;5029139;28;20393;-82
2021/11/22 10:08:22;;;;;;;35.63;19.80;;;;;;;25.06;24.11;98140.19;5029382;28;20033;-85
2021/11/22 10:10:54;;;;;;;26.55;14.57;;;;;;;24.67;24.61;98141.09;5034735;28;20108;-85
2021/11/22 10:13:25;;;;;;;39.22;18.77;;;;;;;25.46;23.97;98135.19;5035267;28;20056;-84
2021/11/22 10:15:58;;;;;;;36.92;20.15;;;;;;;25.61;23.38;98141.19;5027674;28;20033;-85
2021/11/22 10:18:29;;;;;;;36.22;19.73;;;;;;;25.26;23.84;98135.25;5035850;28;20030;-84
2021/11/22 10:21:01;;;;;;;32.45;18.75;;;;;;;25.08;24.14;98134.13;5031633;28;20441;-85
2021/11/22 10:23:28;;;;;;;31.73;18.15;;;;;;;25.71;23.58;98132.47;5034098;28;20034;-85
2021/11/22 10:25:57;;;;;;;31.25;17.83;;;;;;;25.42;23.84;98135.22;5034909;28;20036;-85
2021/11/22 10:28:24;;;;;;;31.85;17.33;;;;;;;25.14;24.03;98135.16;5032215;28;20432;-85
2021/11/22 10:30:58;;;;;;;32.97;19.15;;;;;;;25.04;24.39;98136.25;5034046;28;20029;-85
2021/11/22 10:33:28;;;;;;;29.92;16.35;;;;;;;24.98;24.18;98132.34;5018196;28;20034;-85
2021/11/22 10:35:59;;;;;;;29.95;16.30;;;;;;;25.47;23.73;98133.94;5023677;28;20033;-85
2021/11/22 10:38:31;;;;;;;26.35;14.07;;;;;;;25.28;24.28;98129.19;5033991;28;20029;-85
2021/11/22 10:41:12;;;;;;;27.05;14.27;;;;;;;25.53;23.90;98129.38;5026801;28;20034;-85
2021/11/22 10:43:42;;;;;;;28.30;15.73;;;;;;;25.83;23.54;98136.56;5028350;28;20040;-85
2021/11/22 10:46:11;;;;;;;25.50;13.43;;;;;;;25.41;23.48;98138.50;5033628;28;20126;-86
2021/11/22 10:48:38;;;;;;;29.60;15.40;;;;;;;25.98;23.24;98132.91;5034541;28;20031;-85
2021/11/22 10:51:40;;;;;;;28.90;14.82;;;;;;;26.06;22.95;98139.91;5033705;28;20045;-85
2021/11/22 10:54:07;;;;;;;25.75;14.15;;;;;;;26.69;22.61;98142.84;5016337;28;20041;-85
2021/11/22 10:56:43;;;;;;;24.02;15.07;;;;;;;26.51;22.50;98139.78;5025627;28;20026;-85
2021/11/22 10:59:12;;;;;;;20.10;11.48;;;;;;;26.37;22.47;98147.88;5028286;28;20065;-85
2021/11/22 11:01:42;;;;;;;22.65;11.98;;;;;;;26.05;23.04;98154.41;5030734;28;20026;-85
2021/11/22 11:04:21;;;;;;;22.05;13.45;;;;;;;25.87;23.43;98157.72;5033580;28;20033;-85
2021/11/22 11:07:07;;;;;;;24.02;13.35;;;;;;;25.93;23.08;98155.94;5025331;28;20022;-85
2021/11/22 11:09:36;;;;;;;20.98;12.88;;;;;;;26.16;22.89;98157.75;5015177;28;20042;-85
2021/11/22 11:12:20;;;;;;;21.90;12.73;;;;;;;25.65;23.47;98158.78;5019649;28;20045;-85
2021/11/22 11:14:51;;;;;;;28.50;15.52;;;;;;;21.62;28.79;98181.38;5033891;28;20034;-85
2021/11/22 11:17:22;;;;;;;11.15;6.45;;;;;;;19.11;32.35;98179.06;5024868;28;20041;-85
2021/11/22 11:19:53;;;;;;;13.70;6.28;;;;;;;19.20;32.39;98185.00;5032328;28;20033;-86
2021/11/22 11:22:19;;;;;;;7.85;3.70;;;;;;;17.46;35.29;98182.88;5030909;28;20040;-85